Latest Weather Observations for Coffs Harbour

IDN60801

Issued at 10:35 pm EDT Friday 24 October 2014 (issued every 30 minutes, with the page automatically refreshed every 10 minutes)

About weather observations | Map of weather stations | Latest weather observations for NSW | Other Formats
Station Details ID: 059040 Name: COFFS HARBOUR MO Lat: -30.31 Lon: 153.12 Height: 5.0 m
Data from the previous 72 hours. | See also: Recent months at Coffs Harbour
Date/Time
EDT
Temp
°C
App
Temp
°C
Dew
Point
Rel
Hum
%
Delta-T
°C
Wind Press
QNH
hPa
Press
MSL
hPa
Rain
since 9 am
mm
Dir
 
Spd
km/h
Gust
km/h
Spd
kts
Gust
kts
24/10:30pm 20.2 17.1 15.5 74 2.8 N 26 32 14 17 1019.9 - 0.0
24/10:00pm 20.3 16.8 15.4 73 2.9 N 28 37 15 20 1020.3 - 0.0
24/09:30pm 20.3 15.8 15.4 73 2.9 N 33 44 18 24 1020.4 - 0.0
24/09:00pm 20.3 16.4 15.6 74 2.8 N 30 35 16 19 1020.3 1020.4 0.0
24/08:30pm 20.2 17.5 15.6 75 2.7 N 24 32 13 17 1020.0 - 0.0
24/08:00pm 20.3 17.3 15.8 75 2.7 N 26 33 14 18 1019.7 - 0.0
24/07:30pm 20.5 16.7 15.8 74 2.8 NNE 30 37 16 20 1019.4 - 0.0
24/07:00pm 20.7 15.9 15.7 73 3.0 NNE 35 48 19 26 1019.2 - 0.0
24/06:30pm 21.2 16.9 15.8 71 3.2 NNE 33 46 18 25 1019.0 - 0.0
24/06:00pm 21.5 16.8 15.8 70 3.4 NNE 35 50 19 27 1018.6 1018.7 0.0
24/05:30pm 21.9 16.9 16.1 69 3.5 NNE 37 48 20 26 1018.6 - 0.0
24/05:00pm 21.7 17.5 16.2 71 3.3 NNE 33 50 18 27 1018.7 - 0.0
24/04:30pm 22.2 17.3 16.4 69 3.5 NNE 37 50 20 27 1018.7 - 0.0
24/04:06pm 22.7 17.9 16.6 68 3.7 NNE 37 56 20 30 1018.4 - 0.0
24/04:00pm 23.2 17.7 16.8 67 3.9 NNE 41 56 22 30 1018.5 - 0.0
24/03:30pm 23.3 18.6 16.9 67 3.9 NNE 37 50 20 27 1018.8 - 0.0
24/03:00pm 23.2 19.0 16.3 65 4.2 NNE 33 44 18 24 1019.1 1019.2 0.0
24/02:30pm 24.1 19.8 16.0 60 4.9 NNE 33 46 18 25 1019.5 - 0.0
24/02:00pm 24.0 19.3 15.9 60 4.9 NNE 35 52 19 28 1019.8 - 0.0
24/01:54pm 24.3 20.1 16.1 60 5.0 NE 33 52 18 28 1019.9 - 0.0
24/01:30pm 23.7 18.8 15.3 59 5.0 NE 35 52 19 28 1020.0 - 0.0
24/01:00pm 24.0 19.2 14.7 56 5.5 NNE 33 46 18 25 1020.3 - 0.0
24/12:44pm 24.3 19.2 14.7 55 5.7 NNE 35 54 19 29 1020.4 - 0.0
24/12:30pm 24.1 19.1 15.0 56 5.4 NNE 35 44 19 24 1020.5 - 0.0
24/12:00pm 23.3 18.8 14.9 59 5.0 NNE 32 41 17 22 1020.8 1020.9 0.0
24/11:30am 22.7 19.1 15.3 63 4.4 NE 28 37 15 20 1021.3 - 0.0
24/11:00am 23.1 19.6 15.4 62 4.6 NE 28 35 15 19 1021.6 - 0.0
24/10:30am 23.1 20.3 15.4 62 4.6 NE 24 32 13 17 1021.8 - 0.0
24/10:00am 23.9 21.6 15.8 60 4.9 NE 22 32 12 17 1021.9 - 0.0
24/09:30am 23.5 21.6 15.1 59 5.0 N 19 26 10 14 1021.8 - 0.0
24/09:00am 22.5 20.6 15.3 63 4.3 N 19 26 10 14 1021.9 1022.0 0.0
24/08:30am 21.5 20.7 15.2 67 3.7 N 13 17 7 9 1021.6 - 0.0
24/08:00am 20.3 20.3 15.2 72 3.0 N 9 15 5 8 1021.6 - 0.0
24/07:30am 19.1 19.1 15.2 78 2.3 N 9 11 5 6 1021.5 - 0.0
24/07:00am 17.4 17.8 15.2 87 1.3 N 7 9 4 5 1021.3 - 0.0
24/06:30am 15.7 15.7 14.3 91 0.8 N 7 9 4 5 1021.0 - 0.0
24/06:00am 15.4 15.0 14.0 91 0.8 NNW 9 9 5 5 1020.5 1020.6 0.0
24/05:30am 15.9 15.5 14.1 89 1.0 N 9 13 5 7 1020.2 - 0.0
24/05:00am 16.5 16.1 14.2 86 1.3 NNW 9 11 5 6 1019.8 - 0.0
24/04:30am 17.1 16.8 14.3 83 1.6 NNW 9 15 5 8 1019.6 - 0.0
24/04:00am 17.8 16.0 14.5 81 1.9 N 17 22 9 12 1019.5 - 0.0
24/03:30am 18.0 17.0 14.5 80 2.0 NNW 13 19 7 10 1019.7 - 0.0
24/03:00am 18.0 17.0 14.7 81 1.9 NNW 13 15 7 8 1019.7 1019.8 0.0
24/02:30am 18.2 16.9 14.7 80 2.0 N 15 24 8 13 1019.8 - 0.0
24/02:00am 18.7 17.4 14.9 78 2.2 N 15 20 8 11 1020.1 - 0.0
24/01:30am 19.2 17.6 15.1 77 2.4 N 17 24 9 13 1020.2 - 0.0
24/01:00am 19.0 17.5 15.2 78 2.2 N 17 22 9 12 1020.5 - 0.0
24/12:30am 19.5 18.0 15.2 76 2.5 N 17 24 9 13 1020.5 - 0.0
24/12:00am 19.6 18.1 15.2 76 2.6 N 17 24 9 13 1020.6 1020.7 0.0
 
Date/Time
EDT
Temp
°C
App
Temp
°C
Dew
Point
Rel
Hum
%
Delta-T
°C
Wind Press
QNH
hPa
Press
MSL
hPa
Rain
since 9 am
mm
Dir
 
Spd
km/h
Gust
km/h
Spd
kts
Gust
kts
23/11:30pm 19.4 17.3 15.1 76 2.5 N 20 28 11 15 1020.7 - 0.0
23/11:00pm 19.2 17.9 14.9 76 2.5 N 15 19 8 10 1020.8 - 0.0
23/10:30pm 19.2 17.6 14.9 76 2.5 NNE 17 20 9 11 1020.7 - 0.0
23/10:00pm 19.3 17.7 15.0 76 2.5 NNE 17 20 9 11 1020.3 - 0.0
23/09:30pm 19.2 17.6 15.1 77 2.4 NNE 17 20 9 11 1019.9 - 0.0
23/09:00pm 19.6 18.4 15.0 75 2.7 NNE 15 20 8 11 1019.7 1019.8 0.0
23/08:30pm 19.8 17.2 14.8 73 2.9 NNE 22 28 12 15 1019.5 - 0.0
23/08:00pm 19.9 17.0 15.1 74 2.8 NNE 24 32 13 17 1019.0 - 0.0
23/07:30pm 20.2 18.1 15.1 72 3.0 NNE 20 26 11 14 1018.5 - 0.0
23/07:00pm 20.6 18.5 15.2 71 3.2 NNE 20 28 11 15 1018.3 - 0.0
23/06:30pm 21.2 18.5 15.5 70 3.4 NNE 24 30 13 16 1018.1 - 0.0
23/06:00pm 21.3 18.8 15.2 68 3.6 NNE 22 30 12 16 1017.8 1017.9 0.0
23/05:30pm 21.4 18.8 15.0 67 3.8 NNE 22 32 12 17 1017.3 - 0.0
23/05:00pm 21.5 18.3 15.3 68 3.7 NNE 26 33 14 18 1017.4 - 0.0
23/04:30pm 21.5 17.9 15.3 68 3.7 NNE 28 37 15 20 1017.1 - 0.0
23/04:00pm 22.3 18.0 15.4 65 4.1 NNE 32 41 17 22 1017.0 - 0.0
23/03:30pm 21.4 16.9 14.8 66 3.9 NNE 32 43 17 23 1016.9 - 0.0
23/03:00pm 21.6 17.1 15.0 66 3.9 NE 32 48 17 26 1016.7 1016.8 0.0
23/02:30pm 22.6 17.0 14.4 60 4.8 NE 37 46 20 25 1017.1 - 0.0
23/02:00pm 23.0 17.4 14.5 58 5.0 NE 37 50 20 27 1017.2 - 0.0
23/01:30pm 23.1 17.9 14.6 58 5.0 NE 35 43 19 23 1017.4 - 0.0
23/01:00pm 23.8 18.7 14.9 57 5.3 NE 35 43 19 23 1018.0 - 0.0
23/12:30pm 23.6 18.7 14.4 56 5.4 NE 33 44 18 24 1018.3 - 0.0
23/12:00pm 24.0 19.2 14.1 54 5.8 NE 32 37 17 20 1018.6 1018.7 0.0
23/11:30am 25.6 22.0 13.2 46 7.2 NE 24 32 13 17 1018.8 - 0.0
23/11:00am 25.4 23.3 12.5 44 7.4 NNE 15 24 8 13 1019.3 - 0.0
23/10:30am 24.3 22.2 12.4 47 6.8 NNE 15 22 8 12 1019.8 - 0.0
23/10:00am 23.4 21.8 12.7 51 6.1 N 13 19 7 10 1020.2 - 0.0
23/09:30am 22.3 19.5 12.6 54 5.5 NNW 19 26 10 14 1020.4 - 0.0
23/09:00am 21.5 18.4 12.2 55 5.2 NNW 20 28 11 15 1020.5 1020.6 0.0
23/08:30am 20.8 17.9 12.2 58 4.8 N 19 30 10 16 1020.6 - 0.0
23/08:00am 19.5 15.9 11.7 60 4.3 NNW 22 33 12 18 1020.6 - 0.0
23/07:30am 18.7 16.4 11.6 63 3.9 NNW 15 24 8 13 1020.9 - 0.0
23/07:00am 17.6 15.6 11.5 67 3.3 N 13 20 7 11 1020.8 - 0.0
23/06:30am 15.3 14.2 11.8 79 1.9 N 9 13 5 7 1020.7 - 0.0
23/06:00am 14.6 13.5 11.8 83 1.5 N 9 11 5 6 1020.3 1020.4 0.0
23/05:30am 15.9 13.6 11.6 75 2.3 N 15 20 8 11 1020.3 - 0.0
23/05:00am 16.4 13.6 11.2 71 2.8 N 17 20 9 11 1020.2 - 0.0
23/04:30am 15.7 13.7 11.6 76 2.2 N 13 17 7 9 1020.4 - 0.0
23/04:00am 16.6 13.8 11.4 71 2.8 N 17 20 9 11 1020.6 - 0.0
23/03:30am 16.8 13.4 11.4 70 2.9 N 20 28 11 15 1020.7 - 0.0
23/03:00am 16.9 13.8 11.5 70 2.9 N 19 24 10 13 1020.9 1021.0 0.0
23/02:30am 17.1 14.1 11.8 71 2.9 N 19 24 10 13 1021.3 - 0.0
23/02:00am 17.2 13.9 11.7 70 3.0 N 20 26 11 14 1021.6 - 0.0
23/01:30am 16.7 14.1 11.9 73 2.6 N 17 20 9 11 1021.9 - 0.0
23/01:00am 15.9 13.7 12.2 78 2.0 N 15 19 8 10 1022.2 - 0.0
23/12:30am 15.4 13.7 12.3 82 1.7 N 13 15 7 8 1022.4 - 0.0
23/12:00am 15.6 14.3 12.5 82 1.7 N 11 11 6 6 1022.9 1023.0 0.0
 
Date/Time
EDT
Temp
°C
App
Temp
°C
Dew
Point
Rel
Hum
%
Delta-T
°C
Wind Press
QNH
hPa
Press
MSL
hPa
Rain
since 9 am
mm
Dir
 
Spd
km/h
Gust
km/h
Spd
kts
Gust
kts
22/11:30pm 15.3 14.4 12.7 84 1.4 NNW 9 11 5 6 1023.2 - 0.0
22/11:00pm 14.5 13.5 12.3 87 1.2 NNW 9 11 5 6 1023.4 - 0.0
22/10:30pm 14.9 13.5 12.3 84 1.4 NNW 11 13 6 7 1023.6 - 0.0
22/10:00pm 15.4 13.4 12.7 84 1.5 NW 15 19 8 10 1023.7 - 0.0
22/09:30pm 15.3 14.0 12.6 84 1.5 NNW 11 15 6 8 1023.7 - 0.0
22/09:00pm 16.0 15.1 12.5 80 1.9 N 9 11 5 6 1023.5 1023.6 0.0
22/08:30pm 16.9 16.0 12.5 75 2.4 NNW 9 13 5 7 1023.5 - 0.0
22/08:00pm 17.9 16.1 12.1 69 3.2 N 13 17 7 9 1023.4 - 0.0
22/07:30pm 18.0 16.3 12.4 70 3.1 N 13 17 7 9 1023.2 - 0.0
22/07:00pm 18.7 16.6 12.4 67 3.5 NNE 15 22 8 12 1023.1 - 0.0
22/06:30pm 19.2 16.2 12.6 65 3.7 NNE 20 26 11 14 1023.0 - 0.0
22/06:00pm 19.6 17.2 12.6 64 3.9 ENE 17 24 9 13 1023.0 1023.1 0.0
22/05:30pm 20.2 17.8 12.7 62 4.2 NE 17 26 9 14 1023.0 - 0.0
22/05:00pm 20.1 18.0 12.4 61 4.3 ENE 15 22 8 12 1023.1 - 0.0
22/04:30pm 20.1 17.4 13.0 63 4.0 E 19 26 10 14 1023.0 - 0.0
22/04:00pm 20.8 18.1 11.8 56 5.0 E 17 22 9 12 1023.2 - 0.0
22/03:30pm 21.0 18.2 11.2 53 5.4 E 17 26 9 14 1023.5 - 0.0
22/03:00pm 21.5 18.4 11.6 53 5.5 E 19 26 10 14 1023.9 1024.0 0.0
22/02:30pm 21.1 18.2 12.2 56 5.0 E 19 24 10 13 1024.2 - 0.0
22/02:00pm 21.2 18.6 12.1 56 5.1 ESE 17 22 9 12 1024.6 - 0.0
22/01:30pm 21.3 17.9 10.6 50 5.8 ESE 19 24 10 13 1025.0 - 0.0
22/01:00pm 21.3 18.3 11.8 54 5.3 ESE 19 26 10 14 1025.5 - 0.0
22/12:30pm 20.7 17.8 12.3 58 4.7 SE 19 22 10 12 1025.9 - 0.0
22/12:00pm 20.4 17.4 11.9 58 4.7 SSE 19 24 10 13 1026.3 1026.4 0.0
22/11:30am 20.9 17.1 9.9 49 5.9 S 20 26 11 14 1026.6 - 0.0
22/11:00am 20.1 16.8 10.9 55 5.0 S 19 26 10 14 1026.9 - 0.0
22/10:30am 20.3 17.1 11.1 55 5.0 S 19 28 10 15 1027.0 - 0.0
22/10:00am 19.8 16.6 11.4 58 4.6 S 19 24 10 13 1027.1 - 0.0
22/09:30am 19.4 17.2 12.0 62 4.1 SW 15 20 8 11 1027.2 - 0.0
22/09:00am 18.2 16.2 12.8 71 3.0 WSW 15 19 8 10 1027.2 1027.3 2.2
22/08:30am 17.4 15.7 12.5 73 2.7 WSW 13 17 7 9 1027.1 - 2.2
22/08:00am 16.7 14.4 12.9 78 2.1 WSW 17 22 9 12 1026.9 - 2.2
22/07:30am 16.0 13.6 12.7 81 1.8 WSW 17 20 9 11 1027.0 - 2.2
22/07:00am 14.8 13.1 12.4 85 1.3 WSW 13 17 7 9 1026.9 - 2.2
22/06:30am 13.6 11.9 12.5 93 0.6 W 13 19 7 10 1026.8 - 2.2
22/06:00am 13.2 11.5 12.3 94 0.5 WSW 13 17 7 9 1026.7 1026.8 2.2
22/05:30am 13.0 11.6 12.1 94 0.5 SSW 11 13 6 7 1026.6 - 2.2
22/05:00am 13.3 12.3 12.2 93 0.6 WSW 9 13 5 7 1026.5 - 2.2
22/04:30am 13.8 11.3 12.3 91 0.8 W 17 26 9 14 1026.6 - 2.2
22/04:00am 13.7 10.8 12.4 92 0.7 WSW 19 26 10 14 1027.0 - 2.2
22/03:30am 13.6 11.5 12.5 93 0.6 WSW 15 22 8 12 1027.3 - 2.2
22/03:00am 13.9 11.6 13.0 94 0.5 W 17 20 9 11 1027.4 1027.5 2.2
22/02:30am 14.0 11.7 12.9 93 0.6 WSW 17 24 9 13 1027.9 - 2.2
22/02:05am 14.2 11.9 13.1 93 0.6 WSW 17 26 9 14 1028.2 - 2.2
22/02:00am 14.2 11.9 12.9 92 0.7 WSW 17 26 9 14 1028.3 - 2.2
22/01:46am 14.2 12.3 13.1 93 0.6 W 15 20 8 11 1028.5 - 2.0
22/01:42am 14.3 12.5 13.2 93 0.6 W 15 22 8 12 1028.5 - 2.0
22/01:31am 14.3 12.5 13.2 93 0.6 W 15 19 8 10 1028.7 - 2.0
22/01:30am 14.2 12.4 13.3 94 0.5 W 15 19 8 10 1028.7 - 2.0
22/01:00am 14.4 13.4 13.5 94 0.5 W 11 17 6 9 1029.1 - 1.8
22/12:38am 14.5 13.2 13.6 94 0.5 W 13 17 7 9 1029.4 - 1.4
22/12:30am 14.6 13.3 13.7 94 0.5 WSW 13 19 7 10 1029.5 - 1.0
22/12:17am 14.7 13.9 14.0 96 0.4 W 11 15 6 8 1029.6 - 1.0
22/12:00am 14.8 13.1 13.7 93 0.6 WSW 15 22 8 12 1029.8 1029.9 1.0
 
Date/Time
EDT
Temp
°C
App
Temp
°C
Dew
Point
Rel
Hum
%
Delta-T
°C
Wind Press
QNH
hPa
Press
MSL
hPa
Rain
since 9 am
mm
Dir
 
Spd
km/h
Gust
km/h
Spd
kts
Gust
kts
21/11:56pm 14.8 12.8 13.9 94 0.5 WSW 17 22 9 12 1029.8 - 0.8
21/11:30pm 15.3 14.2 14.4 94 0.5 W 13 17 7 9 1029.9 - 0.6
21/11:15pm 15.4 15.1 14.3 93 0.6 NW 9 11 5 6 1029.9 - 0.6
21/11:00pm 15.5 15.6 14.4 93 0.6 E 7 11 4 6 1030.1 - 0.6
21/10:38pm 15.0 14.4 13.4 90 0.9 SW 9 13 5 7 1030.3 - 0.2
21/10:36pm 15.0 14.0 13.4 90 0.9 SW 11 15 6 8 1030.3 - 0.2

Other Formats:

Comma delimited format used in spreadsheet applications
http://www.bom.gov.au/fwo/IDN60801/IDN60801.94791.axf

JavaScript Object Notation format (JSON) in row-major order
http://www.bom.gov.au/fwo/IDN60801/IDN60801.94791.json